createdAt,value
2023-01-29T00:00:30.686Z,3.01
2023-01-29T00:05:53.359Z,1.76
2023-01-29T00:11:04.367Z,1.19
2023-01-29T00:16:06.971Z,3.82
2023-01-29T00:21:18.744Z,5.36
2023-01-29T00:26:21.359Z,3.66
2023-01-29T00:31:26.057Z,2.02
2023-01-29T00:36:28.891Z,1.56
2023-01-29T00:41:51.322Z,4.30
2023-01-29T00:46:54.723Z,5.19
2023-01-29T00:52:15.613Z,3.05
2023-01-29T00:57:18.220Z,1.72
2023-01-29T01:02:39.790Z,3.49
2023-01-29T01:07:42.345Z,5.66
2023-01-29T01:12:44.954Z,4.43
2023-01-29T01:17:48.829Z,2.63
2023-01-29T01:22:53.161Z,1.62
2023-01-29T01:27:58.059Z,1.04
2023-01-29T01:33:01.598Z,3.46
2023-01-29T01:38:04.218Z,5.76
2023-01-29T01:43:09.967Z,4.73
2023-01-29T01:48:16.985Z,2.65
2023-01-29T01:53:29.068Z,1.51
2023-01-29T01:58:40.574Z,1.35
2023-01-29T02:04:10.565Z,4.15
2023-01-29T02:09:39.287Z,5.88
2023-01-29T02:14:44.458Z,4.37
2023-01-29T02:20:01.221Z,2.43
2023-01-29T02:25:41.621Z,2.50
2023-01-29T02:31:12.654Z,5.38
2023-01-29T02:36:18.822Z,5.21
2023-01-29T02:41:31.791Z,2.96
2023-01-29T02:46:46.443Z,1.89
2023-01-29T02:52:26.957Z,4.16
2023-01-29T02:57:34.726Z,5.84
2023-01-29T03:02:45.721Z,3.95
2023-01-29T03:07:58.534Z,2.12
2023-01-29T03:13:16.537Z,2.28
2023-01-29T03:18:25.962Z,4.87
2023-01-29T03:23:50.651Z,6.10
2023-01-29T03:29:12.994Z,5.47
2023-01-29T03:34:34.767Z,3.17
2023-01-29T03:39:37.600Z,1.72
2023-01-29T03:45:17.915Z,2.10
2023-01-29T03:50:46.784Z,4.96
2023-01-29T03:56:02.276Z,6.03
2023-01-29T04:01:10.545Z,4.22
2023-01-29T04:06:24.636Z,2.48
2023-01-29T04:11:29.381Z,3.65
2023-01-29T04:16:37.200Z,5.80
2023-01-29T04:21:41.280Z,6.55
2023-01-29T04:27:05.764Z,4.36
2023-01-29T04:32:25.799Z,2.45
2023-01-29T04:38:06.143Z,2.83
2023-01-29T04:43:35.505Z,5.48
2023-01-29T04:48:45.572Z,6.63
2023-01-29T04:54:20.364Z,5.21
2023-01-29T04:59:33.003Z,2.87
2023-01-29T05:04:38.105Z,2.84
2023-01-29T05:09:45.090Z,5.20
2023-01-29T05:14:50.799Z,6.14
2023-01-29T05:19:55.484Z,5.55
2023-01-29T05:24:58.054Z,3.27
2023-01-29T05:30:00.770Z,2.24
2023-01-29T05:35:03.548Z,4.18
2023-01-29T05:40:08.703Z,5.97
2023-01-29T05:45:11.605Z,5.69
2023-01-29T05:50:15.881Z,3.53
2023-01-29T05:55:18.672Z,2.18
2023-01-29T06:00:21.969Z,2.59
2023-01-29T06:05:24.664Z,5.22
2023-01-29T06:10:28.354Z,6.46
2023-01-29T06:15:31.263Z,6.07
2023-01-29T06:20:33.916Z,3.63
2023-01-29T06:25:36.494Z,2.20
2023-01-29T06:30:39.128Z,2.64
2023-01-29T06:35:41.861Z,5.29
2023-01-29T06:40:44.547Z,6.23
2023-01-29T06:45:52.714Z,4.47
2023-01-29T06:50:55.350Z,4.03
2023-01-29T06:55:58.694Z,6.15
2023-01-29T07:01:09.946Z,6.65
2023-01-29T07:06:12.568Z,4.39
2023-01-29T07:11:15.199Z,2.72
2023-01-29T07:16:19.155Z,2.97
2023-01-29T07:21:22.014Z,5.56
2023-01-29T07:26:24.877Z,6.62
2023-01-29T07:31:27.577Z,5.97
2023-01-29T07:36:30.944Z,3.76
2023-01-29T07:41:33.544Z,3.54
2023-01-29T07:46:36.579Z,6.08
2023-01-29T07:51:39.134Z,6.42
2023-01-29T07:56:41.711Z,4.17
2023-01-29T08:01:44.372Z,3.73
2023-01-29T08:06:47.079Z,6.19
2023-01-29T08:11:49.663Z,6.57
2023-01-29T08:16:52.403Z,4.39
2023-01-29T08:21:55.003Z,3.75
2023-01-29T08:26:57.790Z,6.23
2023-01-29T08:32:00.912Z,7.04
2023-01-29T08:37:03.590Z,4.83
2023-01-29T08:42:06.320Z,4.18
2023-01-29T08:47:08.958Z,6.64
2023-01-29T08:52:12.012Z,6.72
2023-01-29T08:57:15.893Z,4.48
2023-01-29T09:02:19.943Z,4.42
2023-01-29T09:07:24.087Z,6.85
2023-01-29T09:12:26.699Z,7.03
2023-01-29T09:17:29.351Z,4.91
2023-01-29T09:22:32.249Z,5.67
2023-01-29T09:27:35.074Z,7.35
2023-01-29T09:32:55.045Z,5.57
2023-01-29T09:37:57.922Z,4.06
2023-01-29T09:43:09.467Z,6.08
2023-01-29T09:48:13.268Z,7.83
2023-01-29T09:53:22.032Z,6.80
2023-01-29T09:58:33.716Z,4.66
2023-01-29T10:03:55.968Z,4.88
2023-01-29T10:09:36.271Z,7.64
2023-01-29T10:15:00.925Z,6.47
2023-01-29T10:20:14.950Z,5.72
2023-01-29T10:25:21.791Z,7.69
2023-01-29T10:30:30.707Z,7.50
2023-01-29T10:35:46.572Z,5.05
2023-01-29T10:41:00.783Z,5.27
2023-01-29T10:46:41.014Z,7.47
2023-01-29T10:52:08.556Z,7.25
2023-01-29T10:57:21.767Z,5.04
2023-01-29T11:02:24.724Z,4.99
2023-01-29T11:07:28.189Z,7.10
2023-01-29T11:12:33.370Z,7.83
2023-01-29T11:17:35.989Z,6.02
2023-01-29T11:22:55.545Z,4.92
2023-01-29T11:28:02.696Z,6.76
2023-01-29T11:33:05.323Z,7.85
2023-01-29T11:38:18.570Z,7.44
2023-01-29T11:43:24.171Z,5.13
2023-01-29T11:48:59.259Z,5.16
2023-01-29T11:54:19.620Z,7.62
2023-01-29T11:59:49.940Z,7.50
2023-01-29T12:04:56.037Z,5.31
2023-01-29T12:10:00.163Z,4.82
2023-01-29T12:15:27.372Z,7.03
2023-01-29T12:20:45.156Z,7.13
2023-01-29T12:26:01.366Z,4.96
2023-01-29T12:31:18.062Z,4.72
2023-01-29T12:36:47.004Z,7.34
2023-01-29T12:42:08.400Z,7.56
2023-01-29T12:47:25.187Z,5.18
2023-01-29T12:52:40.832Z,6.02
2023-01-29T12:58:04.575Z,8.13
2023-01-29T13:03:29.450Z,7.26
2023-01-29T13:08:53.611Z,4.84
2023-01-29T13:14:29.542Z,5.11
2023-01-29T13:19:38.176Z,7.39
2023-01-29T13:24:47.919Z,8.21
2023-01-29T13:29:54.398Z,6.43
2023-01-29T13:35:14.062Z,4.69
2023-01-29T13:40:26.659Z,6.41
2023-01-29T13:45:51.569Z,8.12
2023-01-29T13:51:02.759Z,7.64
2023-01-29T13:56:41.815Z,5.33
2023-01-29T14:01:47.623Z,4.69
2023-01-29T14:06:52.744Z,6.93
2023-01-29T14:11:55.531Z,7.54
2023-01-29T14:17:02.812Z,5.54
2023-01-29T14:22:05.675Z,4.61
2023-01-29T14:27:25.250Z,6.82
2023-01-29T14:32:30.867Z,8.09
2023-01-29T14:37:39.942Z,6.92
2023-01-29T14:43:06.992Z,5.00
2023-01-29T14:48:12.528Z,6.45
2023-01-29T14:53:34.321Z,7.46
2023-01-29T14:58:44.143Z,5.84
2023-01-29T15:03:51.123Z,6.32
2023-01-29T15:08:58.197Z,7.76
2023-01-29T15:14:26.642Z,6.74
2023-01-29T15:19:36.344Z,4.61
2023-01-29T15:24:41.261Z,6.33
2023-01-29T15:29:51.888Z,7.68
2023-01-29T15:34:56.311Z,6.40
2023-01-29T15:40:01.747Z,4.40
2023-01-29T15:45:04.868Z,5.70
2023-01-29T15:50:12.475Z,7.42
2023-01-29T15:55:15.987Z,7.14
2023-01-29T16:00:30.042Z,5.17
2023-01-29T16:05:33.255Z,6.64
2023-01-29T16:10:36.812Z,7.75
2023-01-29T16:15:58.765Z,7.28
2023-01-29T16:21:22.823Z,5.11
2023-01-29T16:26:30.391Z,6.65
2023-01-29T16:31:34.430Z,7.83
2023-01-29T16:36:37.962Z,7.43
2023-01-29T16:41:40.662Z,5.42
2023-01-29T16:46:47.519Z,6.52
2023-01-29T16:51:50.280Z,7.55
2023-01-29T16:56:55.844Z,7.12
2023-01-29T17:01:59.425Z,4.89
2023-01-29T17:07:02.697Z,4.62
2023-01-29T17:12:08.833Z,6.51
2023-01-29T17:17:16.255Z,7.65
2023-01-29T17:22:19.008Z,7.73
2023-01-29T17:27:23.096Z,5.62
2023-01-29T17:32:45.198Z,5.03
2023-01-29T17:37:50.010Z,7.00
2023-01-29T17:42:52.651Z,7.78
2023-01-29T17:47:55.257Z,7.32
2023-01-29T17:52:58.105Z,5.00
2023-01-29T17:58:00.757Z,5.26
2023-01-29T18:03:04.042Z,7.02
2023-01-29T18:08:08.335Z,7.40
2023-01-29T18:13:12.293Z,6.03
2023-01-29T18:18:18.595Z,4.68
2023-01-29T18:23:22.012Z,6.52
2023-01-29T18:28:25.924Z,7.59
2023-01-29T18:33:28.558Z,8.20
2023-01-29T18:38:33.336Z,7.50
2023-01-29T18:43:37.037Z,5.11
2023-01-29T18:48:42.539Z,5.36
2023-01-29T18:53:49.756Z,6.88
2023-01-29T18:58:55.992Z,7.36
2023-01-29T19:04:01.835Z,5.60
2023-01-29T19:09:05.007Z,4.89
2023-01-29T19:14:07.626Z,6.40
2023-01-29T19:19:10.358Z,7.45
2023-01-29T19:24:14.197Z,7.73
2023-01-29T19:29:17.773Z,7.04
2023-01-29T19:34:22.242Z,5.22
2023-01-29T19:39:29.895Z,6.53
2023-01-29T19:44:33.153Z,7.70
2023-01-29T19:49:35.807Z,6.08
2023-01-29T19:54:39.398Z,5.18
2023-01-29T19:59:45.585Z,6.77
2023-01-29T20:04:48.455Z,7.55
2023-01-29T20:09:52.756Z,7.50
2023-01-29T20:14:57.642Z,5.34
2023-01-29T20:20:00.231Z,4.96
2023-01-29T20:25:02.991Z,6.33
2023-01-29T20:30:06.090Z,7.04
2023-01-29T20:35:10.131Z,7.62
2023-01-29T20:40:14.620Z,6.32
2023-01-29T20:45:20.239Z,5.16
2023-01-29T20:50:23.986Z,6.64
2023-01-29T20:55:26.931Z,7.55
2023-01-29T21:00:29.535Z,7.75
2023-01-29T21:05:32.284Z,6.15
2023-01-29T21:10:37.584Z,6.20
2023-01-29T21:15:42.938Z,7.41
2023-01-29T21:20:45.974Z,7.83
2023-01-29T21:25:48.775Z,5.77
2023-01-29T21:31:02.749Z,5.09
2023-01-29T21:36:06.660Z,6.98
2023-01-29T21:41:10.018Z,7.74
2023-01-29T21:46:13.078Z,8.24
2023-01-29T21:51:17.924Z,7.41
2023-01-29T21:56:21.551Z,5.53
2023-01-29T22:01:37.225Z,7.02
2023-01-29T22:06:41.324Z,8.26
2023-01-29T22:11:43.898Z,7.34
2023-01-29T22:16:46.682Z,5.73
2023-01-29T22:21:49.316Z,7.12
2023-01-29T22:26:52.492Z,7.63
2023-01-29T22:31:56.504Z,8.25
2023-01-29T22:36:59.160Z,6.02
2023-01-29T22:42:02.474Z,5.82
2023-01-29T22:47:05.180Z,7.71
2023-01-29T22:52:12.059Z,6.87
2023-01-29T22:57:15.679Z,5.66
2023-01-29T23:02:19.758Z,7.29
2023-01-29T23:07:25.786Z,8.07
2023-01-29T23:12:29.043Z,6.33
2023-01-29T23:17:32.081Z,4.84
2023-01-29T23:22:34.779Z,6.49
2023-01-29T23:27:39.317Z,7.50
2023-01-29T23:32:41.937Z,7.37
2023-01-29T23:37:44.546Z,5.44
2023-01-29T23:42:48.502Z,6.44
2023-01-29T23:47:51.100Z,7.35
2023-01-29T23:52:53.788Z,7.33
2023-01-29T23:57:57.507Z,7.86
